Gullane, United Kingdom
Current Conditions -  °F | °C
As of 1:20 PM on Monday 22 Dec 2014 (Local Time) from EGPH Reporting Station
Few Clouds Few Clouds  
Wind Chill: 39°   Ceiling: Unl
Heat Index: 46°   Visibility: 6mi
Dew Point: 43°   Wind: 17mph
Humidity: 87%   Direction: 250°WSW
Pressure: 29.59"   Gusts: NA
Location:  56.04°N, 2.83°W
Report Text: EGPH 221320Z 25015KT 9999 FEW020 08/06 Q1002 RERA
Loading
Personal Weather Stations






























Interactive Weather Map New forecast layout! Learn more

10-Day Weather Forecast

Advertisements
Track Severe Weather on mobile